Heathman, Mississippi
Current Conditions -  °F | °C
As of 5:53 AM on Thursday 27 Nov 2014 (Local Time) from KGLH Reporting Station
Clear Clear  
Wind Chill: 32°   Ceiling: Unl
Heat Index: 39°   Visibility: 10mi
Dew Point: 29°   Wind: 10mph
Humidity: 67%   Direction: 310°NW
Pressure: 30.42"   Gusts: NA
Location:  33.4825°N, 90.6856°W
Report Text: KGLH 271153Z AUTO 31009KT 10SM CLR 04/M02 A3042 RMK AO2 SLP312 T00391017 10083 20039 53034
Loading
Personal Weather Stations






























Interactive Weather Map New forecast layout! Learn more

10-Day Weather Forecast

Advertisements
Track Severe Weather on mobile